sensor_id;sensor_type;location;lat;lon;timestamp;temperature;humidity
54614;DHT22;40514;52.758;6.360;2022-10-31T00:01:26;13.60;99.90
54614;DHT22;40514;52.758;6.360;2022-10-31T00:03:53;13.60;99.90
54614;DHT22;40514;52.758;6.360;2022-10-31T00:06:19;13.50;99.90
54614;DHT22;40514;52.758;6.360;2022-10-31T00:08:51;13.50;99.90
54614;DHT22;40514;52.758;6.360;2022-10-31T00:11:17;13.60;99.90
54614;DHT22;40514;52.758;6.360;2022-10-31T00:13:42;13.50;99.90
54614;DHT22;40514;52.758;6.360;2022-10-31T00:16:15;13.50;99.90
54614;DHT22;40514;52.758;6.360;2022-10-31T00:18:40;13.50;99.90
54614;DHT22;40514;52.758;6.360;2022-10-31T00:21:06;13.50;99.90
54614;DHT22;40514;52.758;6.360;2022-10-31T00:23:31;13.50;99.90
54614;DHT22;40514;52.758;6.360;2022-10-31T00:26:00;13.50;99.90
54614;DHT22;40514;52.758;6.360;2022-10-31T00:28:26;13.40;99.90
54614;DHT22;40514;52.758;6.360;2022-10-31T00:30:52;13.40;99.90
54614;DHT22;40514;52.758;6.360;2022-10-31T00:33:18;13.20;99.90
54614;DHT22;40514;52.758;6.360;2022-10-31T00:35:48;13.10;99.90
54614;DHT22;40514;52.758;6.360;2022-10-31T00:38:14;13.00;99.90
54614;DHT22;40514;52.758;6.360;2022-10-31T00:40:39;13.00;99.90
54614;DHT22;40514;52.758;6.360;2022-10-31T00:43:04;12.90;99.90
54614;DHT22;40514;52.758;6.360;2022-10-31T00:45:30;12.80;99.90
54614;DHT22;40514;52.758;6.360;2022-10-31T00:47:55;12.90;99.90
54614;DHT22;40514;52.758;6.360;2022-10-31T00:50:21;12.90;99.90
54614;DHT22;40514;52.758;6.360;2022-10-31T00:52:46;13.00;99.90
54614;DHT22;40514;52.758;6.360;2022-10-31T00:55:12;13.00;99.90
54614;DHT22;40514;52.758;6.360;2022-10-31T00:57:37;13.10;99.90
54614;DHT22;40514;52.758;6.360;2022-10-31T01:00:03;13.10;99.90
54614;DHT22;40514;52.758;6.360;2022-10-31T01:02:28;13.10;99.90
54614;DHT22;40514;52.758;6.360;2022-10-31T01:04:54;13.20;99.90
54614;DHT22;40514;52.758;6.360;2022-10-31T01:07:19;13.20;99.90
54614;DHT22;40514;52.758;6.360;2022-10-31T01:09:45;13.20;99.90
54614;DHT22;40514;52.758;6.360;2022-10-31T01:12:10;13.20;99.90
54614;DHT22;40514;52.758;6.360;2022-10-31T01:14:36;13.10;99.90
54614;DHT22;40514;52.758;6.360;2022-10-31T01:17:01;13.10;99.90
54614;DHT22;40514;52.758;6.360;2022-10-31T01:19:27;13.00;99.90
54614;DHT22;40514;52.758;6.360;2022-10-31T01:21:53;12.90;99.90
54614;DHT22;40514;52.758;6.360;2022-10-31T01:24:19;12.90;99.90
54614;DHT22;40514;52.758;6.360;2022-10-31T01:26:44;12.90;99.90
54614;DHT22;40514;52.758;6.360;2022-10-31T01:29:10;12.80;99.90
54614;DHT22;40514;52.758;6.360;2022-10-31T01:31:36;12.80;99.90
54614;DHT22;40514;52.758;6.360;2022-10-31T01:34:02;12.70;99.90
54614;DHT22;40514;52.758;6.360;2022-10-31T01:36:29;12.60;99.90
54614;DHT22;40514;52.758;6.360;2022-10-31T01:38:56;12.60;99.90
54614;DHT22;40514;52.758;6.360;2022-10-31T01:41:24;12.50;99.90
54614;DHT22;40514;52.758;6.360;2022-10-31T01:43:51;12.50;99.90
54614;DHT22;40514;52.758;6.360;2022-10-31T01:46:19;12.40;99.90
54614;DHT22;40514;52.758;6.360;2022-10-31T01:48:45;12.40;99.90
54614;DHT22;40514;52.758;6.360;2022-10-31T01:51:11;12.30;99.90
54614;DHT22;40514;52.758;6.360;2022-10-31T01:53:38;12.30;99.90
54614;DHT22;40514;52.758;6.360;2022-10-31T01:56:04;12.20;99.90
54614;DHT22;40514;52.758;6.360;2022-10-31T01:58:30;12.20;99.90
54614;DHT22;40514;52.758;6.360;2022-10-31T02:00:57;12.10;99.90
54614;DHT22;40514;52.758;6.360;2022-10-31T02:03:23;12.10;99.90
54614;DHT22;40514;52.758;6.360;2022-10-31T02:05:50;12.00;99.90
54614;DHT22;40514;52.758;6.360;2022-10-31T02:08:31;12.00;99.90
54614;DHT22;40514;52.758;6.360;2022-10-31T02:10:58;11.90;99.90
54614;DHT22;40514;52.758;6.360;2022-10-31T02:13:23;11.90;99.90
54614;DHT22;40514;52.758;6.360;2022-10-31T02:15:51;11.80;99.90
54614;DHT22;40514;52.758;6.360;2022-10-31T02:18:17;11.80;99.90
54614;DHT22;40514;52.758;6.360;2022-10-31T02:25:46;11.90;99.90
54614;DHT22;40514;52.758;6.360;2022-10-31T02:31:22;12.10;99.90
54614;DHT22;40514;52.758;6.360;2022-10-31T02:33:53;12.10;99.90
54614;DHT22;40514;52.758;6.360;2022-10-31T02:41:20;12.00;99.90
54614;DHT22;40514;52.758;6.360;2022-10-31T02:46:44;12.20;99.90
54614;DHT22;40514;52.758;6.360;2022-10-31T02:51:57;12.10;99.90
54614;DHT22;40514;52.758;6.360;2022-10-31T02:54:23;12.10;99.90
54614;DHT22;40514;52.758;6.360;2022-10-31T02:56:49;12.00;99.90
54614;DHT22;40514;52.758;6.360;2022-10-31T02:59:16;12.00;99.90
54614;DHT22;40514;52.758;6.360;2022-10-31T03:01:48;11.80;99.90
54614;DHT22;40514;52.758;6.360;2022-10-31T03:04:26;11.70;99.90
54614;DHT22;40514;52.758;6.360;2022-10-31T03:06:57;11.70;99.90
54614;DHT22;40514;52.758;6.360;2022-10-31T03:12:14;11.60;99.90
54614;DHT22;40514;52.758;6.360;2022-10-31T03:14:43;11.60;99.90
54614;DHT22;40514;52.758;6.360;2022-10-31T03:17:12;11.60;99.90
54614;DHT22;40514;52.758;6.360;2022-10-31T03:19:40;11.50;99.90
54614;DHT22;40514;52.758;6.360;2022-10-31T03:22:15;11.50;99.90
54614;DHT22;40514;52.758;6.360;2022-10-31T03:24:41;11.50;99.90
54614;DHT22;40514;52.758;6.360;2022-10-31T03:27:08;11.50;99.90
54614;DHT22;40514;52.758;6.360;2022-10-31T03:29:36;11.50;99.90
54614;DHT22;40514;52.758;6.360;2022-10-31T03:32:07;11.50;99.90
54614;DHT22;40514;52.758;6.360;2022-10-31T03:34:33;11.40;99.90
54614;DHT22;40514;52.758;6.360;2022-10-31T03:37:01;11.30;99.90
54614;DHT22;40514;52.758;6.360;2022-10-31T03:39:29;11.20;99.90
54614;DHT22;40514;52.758;6.360;2022-10-31T03:41:57;11.10;99.90
54614;DHT22;40514;52.758;6.360;2022-10-31T03:44:24;11.10;99.90
54614;DHT22;40514;52.758;6.360;2022-10-31T03:46:51;11.10;99.90
54614;DHT22;40514;52.758;6.360;2022-10-31T03:49:16;11.10;99.90
54614;DHT22;40514;52.758;6.360;2022-10-31T03:51:44;11.10;99.90
54614;DHT22;40514;52.758;6.360;2022-10-31T03:57:27;11.10;99.90
54614;DHT22;40514;52.758;6.360;2022-10-31T03:59:44;11.00;99.90
54614;DHT22;40514;52.758;6.360;2022-10-31T04:02:13;11.00;99.90
54614;DHT22;40514;52.758;6.360;2022-10-31T04:04:40;11.00;99.90
54614;DHT22;40514;52.758;6.360;2022-10-31T04:07:05;10.90;99.90
54614;DHT22;40514;52.758;6.360;2022-10-31T04:09:32;10.90;99.90
54614;DHT22;40514;52.758;6.360;2022-10-31T04:11:59;10.80;99.90
54614;DHT22;40514;52.758;6.360;2022-10-31T04:14:25;10.80;99.90
54614;DHT22;40514;52.758;6.360;2022-10-31T04:16:51;10.80;99.90
54614;DHT22;40514;52.758;6.360;2022-10-31T04:19:17;10.80;99.90
54614;DHT22;40514;52.758;6.360;2022-10-31T04:21:42;10.80;99.90
54614;DHT22;40514;52.758;6.360;2022-10-31T04:24:08;10.80;99.90
54614;DHT22;40514;52.758;6.360;2022-10-31T04:26:34;10.80;99.90
54614;DHT22;40514;52.758;6.360;2022-10-31T04:28:59;10.70;99.90
54614;DHT22;40514;52.758;6.360;2022-10-31T04:31:25;10.70;99.90
54614;DHT22;40514;52.758;6.360;2022-10-31T04:33:50;10.70;99.90
54614;DHT22;40514;52.758;6.360;2022-10-31T04:36:16;10.70;99.90
54614;DHT22;40514;52.758;6.360;2022-10-31T04:38:41;10.60;99.90
54614;DHT22;40514;52.758;6.360;2022-10-31T04:41:07;10.60;99.90
54614;DHT22;40514;52.758;6.360;2022-10-31T04:43:32;10.50;99.90
54614;DHT22;40514;52.758;6.360;2022-10-31T04:45:57;10.50;99.90
54614;DHT22;40514;52.758;6.360;2022-10-31T04:48:23;10.40;99.90
54614;DHT22;40514;52.758;6.360;2022-10-31T04:50:48;10.30;99.90
54614;DHT22;40514;52.758;6.360;2022-10-31T04:53:14;10.30;99.90
54614;DHT22;40514;52.758;6.360;2022-10-31T04:55:39;10.30;99.90
54614;DHT22;40514;52.758;6.360;2022-10-31T04:58:05;10.30;99.90
54614;DHT22;40514;52.758;6.360;2022-10-31T05:00:30;10.40;99.90
54614;DHT22;40514;52.758;6.360;2022-10-31T05:02:56;10.40;99.90
54614;DHT22;40514;52.758;6.360;2022-10-31T05:05:24;10.50;99.90
54614;DHT22;40514;52.758;6.360;2022-10-31T05:07:50;10.40;99.90
54614;DHT22;40514;52.758;6.360;2022-10-31T05:10:16;10.40;99.90
54614;DHT22;40514;52.758;6.360;2022-10-31T05:12:51;10.40;99.90
54614;DHT22;40514;52.758;6.360;2022-10-31T05:15:17;10.30;99.90
54614;DHT22;40514;52.758;6.360;2022-10-31T05:17:43;10.20;99.90
54614;DHT22;40514;52.758;6.360;2022-10-31T05:20:09;10.20;99.90
54614;DHT22;40514;52.758;6.360;2022-10-31T05:22:35;10.10;99.90
54614;DHT22;40514;52.758;6.360;2022-10-31T05:25:00;10.10;99.90
54614;DHT22;40514;52.758;6.360;2022-10-31T05:27:26;10.00;99.90
54614;DHT22;40514;52.758;6.360;2022-10-31T05:29:51;10.00;99.90
54614;DHT22;40514;52.758;6.360;2022-10-31T05:32:17;10.00;99.90
54614;DHT22;40514;52.758;6.360;2022-10-31T05:34:42;10.00;99.90
54614;DHT22;40514;52.758;6.360;2022-10-31T05:37:08;10.90;99.90
54614;DHT22;40514;52.758;6.360;2022-10-31T05:39:33;10.00;99.90
54614;DHT22;40514;52.758;6.360;2022-10-31T05:41:59;9.90;99.90
54614;DHT22;40514;52.758;6.360;2022-10-31T05:44:24;9.90;99.90
54614;DHT22;40514;52.758;6.360;2022-10-31T05:46:49;9.90;99.90
54614;DHT22;40514;52.758;6.360;2022-10-31T05:49:15;9.90;99.90
54614;DHT22;40514;52.758;6.360;2022-10-31T05:51:42;9.90;99.90
54614;DHT22;40514;52.758;6.360;2022-10-31T05:54:08;9.90;99.90
54614;DHT22;40514;52.758;6.360;2022-10-31T05:56:33;9.90;99.90
54614;DHT22;40514;52.758;6.360;2022-10-31T05:58:58;9.80;99.90
54614;DHT22;40514;52.758;6.360;2022-10-31T06:01:24;9.80;99.90
54614;DHT22;40514;52.758;6.360;2022-10-31T06:03:49;9.80;99.90
54614;DHT22;40514;52.758;6.360;2022-10-31T06:06:15;9.80;99.90
54614;DHT22;40514;52.758;6.360;2022-10-31T06:08:40;9.80;99.90
54614;DHT22;40514;52.758;6.360;2022-10-31T06:11:06;9.80;99.90
54614;DHT22;40514;52.758;6.360;2022-10-31T06:13:31;9.80;99.90
54614;DHT22;40514;52.758;6.360;2022-10-31T06:15:57;9.80;99.90
54614;DHT22;40514;52.758;6.360;2022-10-31T06:18:22;9.80;99.90
54614;DHT22;40514;52.758;6.360;2022-10-31T06:20:47;9.80;99.90
54614;DHT22;40514;52.758;6.360;2022-10-31T06:23:13;9.80;99.90
54614;DHT22;40514;52.758;6.360;2022-10-31T06:25:38;9.80;99.90
54614;DHT22;40514;52.758;6.360;2022-10-31T06:28:04;9.80;99.90
54614;DHT22;40514;52.758;6.360;2022-10-31T06:30:29;9.80;99.90
54614;DHT22;40514;52.758;6.360;2022-10-31T06:33:00;9.80;99.90
54614;DHT22;40514;52.758;6.360;2022-10-31T06:35:26;9.70;99.90
54614;DHT22;40514;52.758;6.360;2022-10-31T06:37:54;9.70;99.90
54614;DHT22;40514;52.758;6.360;2022-10-31T06:40:20;9.60;99.90
54614;DHT22;40514;52.758;6.360;2022-10-31T06:42:46;9.60;99.90
54614;DHT22;40514;52.758;6.360;2022-10-31T06:45:11;9.70;99.90
54614;DHT22;40514;52.758;6.360;2022-10-31T06:47:36;9.70;99.90
54614;DHT22;40514;52.758;6.360;2022-10-31T06:50:02;9.70;99.90
54614;DHT22;40514;52.758;6.360;2022-10-31T06:52:27;9.60;99.90
54614;DHT22;40514;52.758;6.360;2022-10-31T06:54:53;9.60;99.90
54614;DHT22;40514;52.758;6.360;2022-10-31T06:57:18;9.70;99.90
54614;DHT22;40514;52.758;6.360;2022-10-31T06:59:44;9.70;99.90
54614;DHT22;40514;52.758;6.360;2022-10-31T07:02:10;9.70;99.90
54614;DHT22;40514;52.758;6.360;2022-10-31T07:04:35;9.70;99.90
54614;DHT22;40514;52.758;6.360;2022-10-31T07:07:01;9.70;99.90
54614;DHT22;40514;52.758;6.360;2022-10-31T07:09:26;9.70;99.90
54614;DHT22;40514;52.758;6.360;2022-10-31T07:11:52;9.60;99.90
54614;DHT22;40514;52.758;6.360;2022-10-31T07:14:18;9.60;99.90
54614;DHT22;40514;52.758;6.360;2022-10-31T07:16:43;9.70;99.90
54614;DHT22;40514;52.758;6.360;2022-10-31T07:19:09;9.70;99.90
54614;DHT22;40514;52.758;6.360;2022-10-31T07:21:34;9.70;99.90
54614;DHT22;40514;52.758;6.360;2022-10-31T07:24:00;9.70;99.90
54614;DHT22;40514;52.758;6.360;2022-10-31T07:26:25;9.70;99.90
54614;DHT22;40514;52.758;6.360;2022-10-31T07:28:52;9.70;99.90
54614;DHT22;40514;52.758;6.360;2022-10-31T07:31:18;9.70;99.90
54614;DHT22;40514;52.758;6.360;2022-10-31T07:33:43;9.70;99.90
54614;DHT22;40514;52.758;6.360;2022-10-31T07:36:09;9.70;99.90
54614;DHT22;40514;52.758;6.360;2022-10-31T07:38:35;9.80;99.90
54614;DHT22;40514;52.758;6.360;2022-10-31T07:41:03;9.80;99.90
54614;DHT22;40514;52.758;6.360;2022-10-31T07:43:29;9.90;99.90
54614;DHT22;40514;52.758;6.360;2022-10-31T07:45:54;9.90;99.90
54614;DHT22;40514;52.758;6.360;2022-10-31T07:48:20;10.00;99.90
54614;DHT22;40514;52.758;6.360;2022-10-31T07:50:46;10.10;99.90
54614;DHT22;40514;52.758;6.360;2022-10-31T07:53:13;9.80;99.90
54614;DHT22;40514;52.758;6.360;2022-10-31T07:56:01;10.10;99.90
54614;DHT22;40514;52.758;6.360;2022-10-31T07:58:26;10.30;99.90
54614;DHT22;40514;52.758;6.360;2022-10-31T08:00:51;10.30;99.90
54614;DHT22;40514;52.758;6.360;2022-10-31T08:03:18;10.40;99.90
54614;DHT22;40514;52.758;6.360;2022-10-31T08:05:43;10.50;99.90
54614;DHT22;40514;52.758;6.360;2022-10-31T08:08:11;10.60;99.90
54614;DHT22;40514;52.758;6.360;2022-10-31T08:10:37;11.00;99.90
54614;DHT22;40514;52.758;6.360;2022-10-31T08:13:06;10.80;99.90
54614;DHT22;40514;52.758;6.360;2022-10-31T08:15:32;10.90;99.90
54614;DHT22;40514;52.758;6.360;2022-10-31T08:17:59;11.00;99.90
54614;DHT22;40514;52.758;6.360;2022-10-31T08:20:25;11.10;99.90
54614;DHT22;40514;52.758;6.360;2022-10-31T08:22:57;11.30;99.90
54614;DHT22;40514;52.758;6.360;2022-10-31T08:25:23;11.50;99.90
54614;DHT22;40514;52.758;6.360;2022-10-31T08:27:50;11.60;99.90
54614;DHT22;40514;52.758;6.360;2022-10-31T08:30:15;11.60;99.90
54614;DHT22;40514;52.758;6.360;2022-10-31T08:32:41;11.80;99.90
54614;DHT22;40514;52.758;6.360;2022-10-31T08:35:06;12.00;99.90
54614;DHT22;40514;52.758;6.360;2022-10-31T08:37:32;12.20;99.90
54614;DHT22;40514;52.758;6.360;2022-10-31T08:39:57;12.20;99.90
54614;DHT22;40514;52.758;6.360;2022-10-31T08:42:23;12.40;99.90
54614;DHT22;40514;52.758;6.360;2022-10-31T08:44:48;12.50;99.90
54614;DHT22;40514;52.758;6.360;2022-10-31T08:47:14;12.60;99.90
54614;DHT22;40514;52.758;6.360;2022-10-31T08:49:39;12.60;99.90
54614;DHT22;40514;52.758;6.360;2022-10-31T08:52:04;12.60;99.90
54614;DHT22;40514;52.758;6.360;2022-10-31T08:54:30;12.70;99.90
54614;DHT22;40514;52.758;6.360;2022-10-31T08:56:55;12.80;99.90
54614;DHT22;40514;52.758;6.360;2022-10-31T08:59:21;13.00;99.90
54614;DHT22;40514;52.758;6.360;2022-10-31T09:01:46;13.20;99.90
54614;DHT22;40514;52.758;6.360;2022-10-31T09:04:12;13.30;99.90
54614;DHT22;40514;52.758;6.360;2022-10-31T09:06:37;13.70;99.90
54614;DHT22;40514;52.758;6.360;2022-10-31T09:09:03;14.00;99.90
54614;DHT22;40514;52.758;6.360;2022-10-31T09:11:30;14.50;99.90
54614;DHT22;40514;52.758;6.360;2022-10-31T09:13:55;15.10;99.90
54614;DHT22;40514;52.758;6.360;2022-10-31T09:16:21;15.70;99.90
54614;DHT22;40514;52.758;6.360;2022-10-31T09:18:46;15.50;99.90
54614;DHT22;40514;52.758;6.360;2022-10-31T09:21:12;15.40;99.90
54614;DHT22;40514;52.758;6.360;2022-10-31T09:23:38;15.40;99.90
54614;DHT22;40514;52.758;6.360;2022-10-31T09:26:03;15.30;99.90
54614;DHT22;40514;52.758;6.360;2022-10-31T09:28:31;15.20;99.90
54614;DHT22;40514;52.758;6.360;2022-10-31T09:30:57;15.00;99.90
54614;DHT22;40514;52.758;6.360;2022-10-31T09:33:23;14.80;99.90
54614;DHT22;40514;52.758;6.360;2022-10-31T09:35:48;14.80;99.90
54614;DHT22;40514;52.758;6.360;2022-10-31T09:38:16;14.90;99.90
54614;DHT22;40514;52.758;6.360;2022-10-31T09:41:13;15.00;99.90
54614;DHT22;40514;52.758;6.360;2022-10-31T09:43:56;15.30;99.90
54614;DHT22;40514;52.758;6.360;2022-10-31T09:46:46;15.50;99.90
54614;DHT22;40514;52.758;6.360;2022-10-31T09:49:36;15.80;99.90
54614;DHT22;40514;52.758;6.360;2022-10-31T09:52:04;15.70;99.90
54614;DHT22;40514;52.758;6.360;2022-10-31T09:54:38;15.40;99.90
54614;DHT22;40514;52.758;6.360;2022-10-31T09:57:12;15.30;99.90
54614;DHT22;40514;52.758;6.360;2022-10-31T09:59:40;15.10;99.90
54614;DHT22;40514;52.758;6.360;2022-10-31T10:02:18;15.10;99.90
54614;DHT22;40514;52.758;6.360;2022-10-31T10:07:29;15.20;99.90
54614;DHT22;40514;52.758;6.360;2022-10-31T10:09:57;15.30;99.90
54614;DHT22;40514;52.758;6.360;2022-10-31T10:12:32;15.20;99.90
54614;DHT22;40514;52.758;6.360;2022-10-31T10:15:08;15.40;99.90
54614;DHT22;40514;52.758;6.360;2022-10-31T10:18:01;15.80;99.90
54614;DHT22;40514;52.758;6.360;2022-10-31T10:26:34;17.50;99.90
54614;DHT22;40514;52.758;6.360;2022-10-31T10:29:11;17.80;99.90
54614;DHT22;40514;52.758;6.360;2022-10-31T10:31:42;17.80;99.90
54614;DHT22;40514;52.758;6.360;2022-10-31T10:37:09;18.00;99.90
54614;DHT22;40514;52.758;6.360;2022-10-31T10:39:43;19.10;99.90
54614;DHT22;40514;52.758;6.360;2022-10-31T10:42:14;20.00;99.90
54614;DHT22;40514;52.758;6.360;2022-10-31T10:45:00;19.80;99.90
54614;DHT22;40514;52.758;6.360;2022-10-31T10:47:52;19.80;99.90
54614;DHT22;40514;52.758;6.360;2022-10-31T10:50:26;19.40;99.90
54614;DHT22;40514;52.758;6.360;2022-10-31T10:53:00;18.90;99.90
54614;DHT22;40514;52.758;6.360;2022-10-31T10:55:48;18.50;99.90
54614;DHT22;40514;52.758;6.360;2022-10-31T10:58:16;18.50;99.90
54614;DHT22;40514;52.758;6.360;2022-10-31T11:00:45;18.20;99.90
54614;DHT22;40514;52.758;6.360;2022-10-31T11:03:14;18.00;99.90
54614;DHT22;40514;52.758;6.360;2022-10-31T11:08:32;17.50;99.90
54614;DHT22;40514;52.758;6.360;2022-10-31T11:11:04;17.20;99.90
54614;DHT22;40514;52.758;6.360;2022-10-31T11:13:33;17.10;99.90
54614;DHT22;40514;52.758;6.360;2022-10-31T11:16:09;17.00;99.90
54614;DHT22;40514;52.758;6.360;2022-10-31T11:18:39;16.90;99.90
54614;DHT22;40514;52.758;6.360;2022-10-31T11:21:05;16.90;99.90
54614;DHT22;40514;52.758;6.360;2022-10-31T11:23:32;16.80;99.90
54614;DHT22;40514;52.758;6.360;2022-10-31T11:28:26;16.70;99.90
54614;DHT22;40514;52.758;6.360;2022-10-31T11:31:07;16.70;99.90
54614;DHT22;40514;52.758;6.360;2022-10-31T11:33:46;16.70;99.90
54614;DHT22;40514;52.758;6.360;2022-10-31T11:36:24;16.60;99.90
54614;DHT22;40514;52.758;6.360;2022-10-31T11:38:51;16.60;99.90
54614;DHT22;40514;52.758;6.360;2022-10-31T11:41:20;16.50;99.90
54614;DHT22;40514;52.758;6.360;2022-10-31T11:43:52;16.60;99.90
54614;DHT22;40514;52.758;6.360;2022-10-31T11:46:23;16.60;99.90
54614;DHT22;40514;52.758;6.360;2022-10-31T11:48:54;16.60;99.90
54614;DHT22;40514;52.758;6.360;2022-10-31T11:51:26;16.60;99.90
54614;DHT22;40514;52.758;6.360;2022-10-31T11:53:55;16.60;99.90
54614;DHT22;40514;52.758;6.360;2022-10-31T11:56:22;16.70;99.90
54614;DHT22;40514;52.758;6.360;2022-10-31T11:59:05;16.80;99.90
54614;DHT22;40514;52.758;6.360;2022-10-31T12:01:32;16.90;99.90
54614;DHT22;40514;52.758;6.360;2022-10-31T12:04:08;16.90;99.90
54614;DHT22;40514;52.758;6.360;2022-10-31T12:06:42;17.00;99.90
54614;DHT22;40514;52.758;6.360;2022-10-31T12:09:40;17.10;99.90
54614;DHT22;40514;52.758;6.360;2022-10-31T12:17:21;16.90;99.90
54614;DHT22;40514;52.758;6.360;2022-10-31T12:20:10;16.80;99.90
54614;DHT22;40514;52.758;6.360;2022-10-31T12:22:45;16.80;99.90
54614;DHT22;40514;52.758;6.360;2022-10-31T12:25:21;16.70;99.90
54614;DHT22;40514;52.758;6.360;2022-10-31T12:28:11;16.70;99.90
54614;DHT22;40514;52.758;6.360;2022-10-31T12:36:32;16.70;99.90
54614;DHT22;40514;52.758;6.360;2022-10-31T12:42:14;16.60;99.90
54614;DHT22;40514;52.758;6.360;2022-10-31T12:44:50;16.50;99.90
54614;DHT22;40514;52.758;6.360;2022-10-31T12:47:40;16.50;99.90
54614;DHT22;40514;52.758;6.360;2022-10-31T12:50:31;16.50;99.90
54614;DHT22;40514;52.758;6.360;2022-10-31T12:53:24;16.60;99.90
54614;DHT22;40514;52.758;6.360;2022-10-31T13:01:27;16.80;99.90
54614;DHT22;40514;52.758;6.360;2022-10-31T13:04:14;17.00;99.90
54614;DHT22;40514;52.758;6.360;2022-10-31T13:06:46;17.20;99.90
54614;DHT22;40514;52.758;6.360;2022-10-31T13:09:18;17.40;99.90
54614;DHT22;40514;52.758;6.360;2022-10-31T13:12:14;17.50;99.90
54614;DHT22;40514;52.758;6.360;2022-10-31T13:17:19;17.50;99.90
54614;DHT22;40514;52.758;6.360;2022-10-31T13:19:46;17.40;99.90
54614;DHT22;40514;52.758;6.360;2022-10-31T13:22:21;17.30;99.90
54614;DHT22;40514;52.758;6.360;2022-10-31T13:27:28;17.20;99.90
54614;DHT22;40514;52.758;6.360;2022-10-31T13:30:02;17.20;99.90
54614;DHT22;40514;52.758;6.360;2022-10-31T13:32:37;17.20;99.90
54614;DHT22;40514;52.758;6.360;2022-10-31T13:35:13;17.20;99.90
54614;DHT22;40514;52.758;6.360;2022-10-31T13:37:44;17.20;99.90
54614;DHT22;40514;52.758;6.360;2022-10-31T13:40:34;17.20;99.90
54614;DHT22;40514;52.758;6.360;2022-10-31T13:43:22;17.20;99.90
54614;DHT22;40514;52.758;6.360;2022-10-31T13:45:51;17.20;99.90
54614;DHT22;40514;52.758;6.360;2022-10-31T13:51:09;17.00;99.90
54614;DHT22;40514;52.758;6.360;2022-10-31T13:53:43;17.00;99.90
54614;DHT22;40514;52.758;6.360;2022-10-31T13:56:20;16.90;99.90
54614;DHT22;40514;52.758;6.360;2022-10-31T13:59:12;16.90;99.90
54614;DHT22;40514;52.758;6.360;2022-10-31T14:04:23;16.80;99.90
54614;DHT22;40514;52.758;6.360;2022-10-31T14:07:19;16.80;99.90
54614;DHT22;40514;52.758;6.360;2022-10-31T14:09:59;16.80;99.90
54614;DHT22;40514;52.758;6.360;2022-10-31T14:12:43;16.80;99.90
54614;DHT22;40514;52.758;6.360;2022-10-31T14:15:21;16.70;99.90
54614;DHT22;40514;52.758;6.360;2022-10-31T14:17:59;16.70;99.90
54614;DHT22;40514;52.758;6.360;2022-10-31T14:20:40;16.60;99.90
54614;DHT22;40514;52.758;6.360;2022-10-31T14:23:39;16.60;99.90
54614;DHT22;40514;52.758;6.360;2022-10-31T14:26:17;16.50;99.90
54614;DHT22;40514;52.758;6.360;2022-10-31T14:28:44;16.60;99.90
54614;DHT22;40514;52.758;6.360;2022-10-31T14:31:45;16.50;99.90
54614;DHT22;40514;52.758;6.360;2022-10-31T14:34:34;16.50;99.90
54614;DHT22;40514;52.758;6.360;2022-10-31T14:43:02;16.40;99.90
54614;DHT22;40514;52.758;6.360;2022-10-31T14:45:46;16.50;99.90
54614;DHT22;40514;52.758;6.360;2022-10-31T14:48:36;16.50;99.90
54614;DHT22;40514;52.758;6.360;2022-10-31T14:51:09;16.40;99.90
54614;DHT22;40514;52.758;6.360;2022-10-31T14:53:41;15.70;99.90
54614;DHT22;40514;52.758;6.360;2022-10-31T14:56:10;16.90;99.90
54614;DHT22;40514;52.758;6.360;2022-10-31T14:58:40;16.40;99.90
54614;DHT22;40514;52.758;6.360;2022-10-31T15:01:15;16.40;99.90
54614;DHT22;40514;52.758;6.360;2022-10-31T15:03:44;17.00;99.90
54614;DHT22;40514;52.758;6.360;2022-10-31T15:06:11;16.40;99.90
54614;DHT22;40514;52.758;6.360;2022-10-31T15:08:38;16.40;99.90
54614;DHT22;40514;52.758;6.360;2022-10-31T15:13:43;16.30;99.90
54614;DHT22;40514;52.758;6.360;2022-10-31T15:16:09;16.30;99.90
54614;DHT22;40514;52.758;6.360;2022-10-31T15:18:47;16.30;99.90
54614;DHT22;40514;52.758;6.360;2022-10-31T15:21:14;16.30;99.90
54614;DHT22;40514;52.758;6.360;2022-10-31T15:23:40;16.40;99.90
54614;DHT22;40514;52.758;6.360;2022-10-31T15:26:05;16.20;99.90
54614;DHT22;40514;52.758;6.360;2022-10-31T15:28:31;16.70;99.90
54614;DHT22;40514;52.758;6.360;2022-10-31T15:30:57;16.20;99.90
54614;DHT22;40514;52.758;6.360;2022-10-31T15:33:27;16.10;99.90
54614;DHT22;40514;52.758;6.360;2022-10-31T15:36:00;16.20;99.90
54614;DHT22;40514;52.758;6.360;2022-10-31T15:38:26;16.00;99.90
54614;DHT22;40514;52.758;6.360;2022-10-31T15:41:01;16.00;99.90
54614;DHT22;40514;52.758;6.360;2022-10-31T15:43:34;15.90;99.90
54614;DHT22;40514;52.758;6.360;2022-10-31T15:46:00;15.90;99.90
54614;DHT22;40514;52.758;6.360;2022-10-31T15:48:26;16.30;99.90
54614;DHT22;40514;52.758;6.360;2022-10-31T15:50:53;15.70;99.90
54614;DHT22;40514;52.758;6.360;2022-10-31T15:53:21;16.10;99.90
54614;DHT22;40514;52.758;6.360;2022-10-31T15:55:49;15.70;99.90
54614;DHT22;40514;52.758;6.360;2022-10-31T15:58:16;15.60;99.90
54614;DHT22;40514;52.758;6.360;2022-10-31T16:00:42;15.60;99.90
54614;DHT22;40514;52.758;6.360;2022-10-31T16:05:53;15.60;99.90
54614;DHT22;40514;52.758;6.360;2022-10-31T16:13:23;15.50;99.90
54614;DHT22;40514;52.758;6.360;2022-10-31T16:15:52;15.40;99.90
54614;DHT22;40514;52.758;6.360;2022-10-31T16:18:18;15.40;99.90
54614;DHT22;40514;52.758;6.360;2022-10-31T16:20:50;15.40;99.90
54614;DHT22;40514;52.758;6.360;2022-10-31T16:23:18;14.50;99.90
54614;DHT22;40514;52.758;6.360;2022-10-31T16:25:44;15.30;99.90
54614;DHT22;40514;52.758;6.360;2022-10-31T16:28:23;15.30;99.90
54614;DHT22;40514;52.758;6.360;2022-10-31T16:30:53;15.30;99.90
54614;DHT22;40514;52.758;6.360;2022-10-31T16:35:54;15.30;99.90
54614;DHT22;40514;52.758;6.360;2022-10-31T16:38:20;15.30;99.90
54614;DHT22;40514;52.758;6.360;2022-10-31T16:40:45;15.20;99.90
54614;DHT22;40514;52.758;6.360;2022-10-31T16:43:11;15.20;99.90
54614;DHT22;40514;52.758;6.360;2022-10-31T16:45:37;15.30;99.90
54614;DHT22;40514;52.758;6.360;2022-10-31T16:48:11;15.20;99.90
54614;DHT22;40514;52.758;6.360;2022-10-31T16:50:37;15.20;99.90
54614;DHT22;40514;52.758;6.360;2022-10-31T16:53:03;15.20;99.90
54614;DHT22;40514;52.758;6.360;2022-10-31T16:55:28;15.10;99.90
54614;DHT22;40514;52.758;6.360;2022-10-31T16:57:54;15.10;99.90
54614;DHT22;40514;52.758;6.360;2022-10-31T17:00:25;15.10;99.90
54614;DHT22;40514;52.758;6.360;2022-10-31T17:02:51;15.10;99.90
54614;DHT22;40514;52.758;6.360;2022-10-31T17:05:18;15.10;99.90
54614;DHT22;40514;52.758;6.360;2022-10-31T17:07:44;15.10;99.90
54614;DHT22;40514;52.758;6.360;2022-10-31T17:10:10;15.10;99.90
54614;DHT22;40514;52.758;6.360;2022-10-31T17:12:36;15.10;99.90
54614;DHT22;40514;52.758;6.360;2022-10-31T17:15:02;15.10;99.90
54614;DHT22;40514;52.758;6.360;2022-10-31T17:17:28;15.00;99.90